Time;durP1;ratioP1;P1;durP2;ratioP2;P2;SDS_P1;SDS_P2;PMS_P1;PMS_P2;Temp;Humidity;BMP_temperature;BMP_pressure;BME280_temperature;BME280_humidity;BME280_pressure;Samples;Min_cycle;Max_cycle;Signal;HPM_P1;HPM_P2
2023/06/17 00:01:17;;;;;;;0.13;0.13;;;19.10;99.90;;;;;;5036345;28;20017;-87
2023/06/17 00:03:43;;;;;;;0.20;0.20;;;19.10;99.90;;;;;;5018384;28;20093;-88
2023/06/17 00:06:09;;;;;;;0.10;0.10;;;18.80;99.90;;;;;;5035936;28;20045;-88
2023/06/17 00:08:35;;;;;;;0.10;0.10;;;18.70;99.90;;;;;;5018509;28;20040;-88
2023/06/17 00:11:00;;;;;;;0.63;0.63;;;18.60;99.90;;;;;;5018228;28;20018;-87
2023/06/17 00:13:26;;;;;;;0.65;0.65;;;18.40;99.90;;;;;;5018204;28;20045;-87
2023/06/17 00:15:59;;;;;;;0.95;0.55;;;18.40;99.90;;;;;;5036241;28;20097;-87
2023/06/17 00:18:24;;;;;;;0.85;0.57;;;18.50;99.90;;;;;;5035736;28;20457;-87
2023/06/17 00:20:52;;;;;;;0.50;0.50;;;18.40;99.90;;;;;;5018124;28;20064;-87
2023/06/17 00:23:19;;;;;;;0.40;0.40;;;18.40;99.90;;;;;;5036025;28;20025;-87
2023/06/17 00:25:45;;;;;;;0.22;0.22;;;18.40;99.90;;;;;;5035846;28;20043;-87
2023/06/17 00:28:11;;;;;;;0.65;0.30;;;18.50;99.90;;;;;;5018302;28;20030;-87
2023/06/17 00:30:37;;;;;;;0.20;0.20;;;18.40;99.90;;;;;;5035719;28;20426;-88
2023/06/17 00:33:03;;;;;;;0.10;0.10;;;18.30;99.90;;;;;;5035841;28;20048;-88
2023/06/17 00:35:28;;;;;;;0.43;0.35;;;18.30;99.90;;;;;;5035515;28;20021;-87
2023/06/17 00:37:54;;;;;;;0.30;0.30;;;18.50;99.90;;;;;;5035744;28;20029;-88
2023/06/17 00:40:19;;;;;;;0.77;0.63;;;18.50;99.90;;;;;;5035349;28;20042;-87
2023/06/17 00:42:45;;;;;;;0.47;0.40;;;18.00;99.90;;;;;;5024602;28;20113;-88
2023/06/17 00:45:11;;;;;;;0.60;0.32;;;17.90;99.90;;;;;;4998081;28;20037;-88
2023/06/17 00:47:41;;;;;;;0.30;0.30;;;17.90;99.90;;;;;;5015673;28;20100;-87
2023/06/17 00:50:09;;;;;;;0.88;0.35;;;17.80;99.90;;;;;;5015276;28;20026;-88
2023/06/17 00:52:37;;;;;;;0.32;0.32;;;17.60;99.90;;;;;;5015310;28;20479;-87
2023/06/17 00:55:03;;;;;;;0.45;0.28;;;17.70;99.90;;;;;;4997736;28;20371;-87
2023/06/17 00:57:29;;;;;;;0.35;0.30;;;17.60;99.90;;;;;;4998356;28;20025;-87
2023/06/17 00:59:55;;;;;;;0.40;0.30;;;17.90;99.90;;;;;;4998052;28;20478;-87
2023/06/17 01:02:25;;;;;;;0.47;0.20;;;17.80;99.90;;;;;;4997630;28;20113;-87
2023/06/17 01:04:52;;;;;;;0.47;0.20;;;17.70;99.90;;;;;;5015023;28;20053;-87
2023/06/17 01:07:35;;;;;;;0.73;0.65;;;17.80;99.90;;;;;;5014783;28;20033;-87
2023/06/17 01:10:17;;;;;;;0.30;0.30;;;17.90;99.90;;;;;;5015751;28;20057;-88
2023/06/17 01:12:44;;;;;;;0.20;0.20;;;18.00;99.90;;;;;;5015086;28;20041;-87
2023/06/17 01:15:13;;;;;;;1.05;0.50;;;18.00;99.90;;;;;;4997451;28;20026;-88
2023/06/17 01:17:44;;;;;;;0.17;0.17;;;17.90;99.90;;;;;;5015307;28;20029;-87
2023/06/17 01:20:12;;;;;;;0.30;0.30;;;17.90;99.90;;;;;;5014756;28;20037;-87
2023/06/17 01:22:38;;;;;;;0.17;0.17;;;17.80;99.90;;;;;;5015154;28;20076;-88
2023/06/17 01:25:05;;;;;;;0.40;0.40;;;17.90;99.90;;;;;;5015103;28;20030;-88
2023/06/17 01:27:33;;;;;;;0.20;0.20;;;17.90;99.90;;;;;;5015241;28;20030;-87
2023/06/17 01:30:00;;;;;;;0.30;0.30;;;17.90;99.90;;;;;;4997177;28;20041;-87
2023/06/17 01:32:26;;;;;;;0.10;0.10;;;17.80;99.90;;;;;;4996757;28;20154;-88
2023/06/17 01:35:13;;;;;;;0.63;0.63;;;17.80;99.90;;;;;;4997166;28;20116;-88
2023/06/17 01:37:53;;;;;;;0.65;0.35;;;17.50;99.90;;;;;;4997354;28;20041;-87
2023/06/17 01:40:22;;;;;;;0.20;0.20;;;18.00;99.90;;;;;;5014722;28;20034;-87
2023/06/17 01:42:51;;;;;;;0.60;0.60;;;17.60;99.90;;;;;;5014890;28;20072;-88
2023/06/17 01:45:18;;;;;;;0.22;0.17;;;17.30;99.90;;;;;;5013741;28;20030;-87
2023/06/17 01:47:44;;;;;;;0.90;0.52;;;17.30;99.90;;;;;;5014591;28;20030;-87
2023/06/17 01:50:10;;;;;;;0.20;0.20;;;17.20;99.90;;;;;;5014761;28;20022;-88
2023/06/17 01:52:36;;;;;;;0.40;0.40;;;17.40;99.90;;;;;;5014462;28;20034;-87
2023/06/17 01:55:02;;;;;;;0.38;0.28;;;17.20;99.90;;;;;;5013155;28;20080;-87
2023/06/17 01:57:28;;;;;;;0.43;0.43;;;17.30;99.90;;;;;;5013462;28;20034;-87
2023/06/17 01:59:54;;;;;;;0.10;0.10;;;17.10;99.90;;;;;;5012966;28;20030;-88
2023/06/17 02:02:20;;;;;;;0.25;0.25;;;17.20;99.90;;;;;;5014233;28;20030;-87
2023/06/17 02:04:47;;;;;;;0.30;0.30;;;17.10;99.90;;;;;;5014370;28;20022;-87
2023/06/17 02:07:14;;;;;;;1.05;0.30;;;16.90;99.90;;;;;;5014580;28;20044;-88
2023/06/17 02:09:40;;;;;;;0.25;0.25;;;17.00;99.90;;;;;;5013952;28;20165;-88
2023/06/17 02:12:06;;;;;;;0.20;0.20;;;16.90;99.90;;;;;;5013155;28;20072;-87
2023/06/17 02:14:33;;;;;;;0.50;0.40;;;17.10;99.90;;;;;;5012451;28;20123;-88
2023/06/17 02:16:59;;;;;;;1.45;0.38;;;17.10;99.90;;;;;;5014261;28;20076;-87
2023/06/17 02:19:28;;;;;;;0.22;0.20;;;16.90;99.90;;;;;;5012596;28;20030;-87
2023/06/17 02:21:54;;;;;;;0.45;0.45;;;17.00;99.90;;;;;;5013768;28;20034;-87
2023/06/17 02:24:21;;;;;;;0.40;0.40;;;17.10;99.90;;;;;;5012510;28;20037;-87
2023/06/17 02:26:49;;;;;;;0.57;0.30;;;16.90;99.90;;;;;;5013943;28;20026;-88
2023/06/17 02:29:15;;;;;;;0.98;0.85;;;17.00;99.90;;;;;;5013511;28;20033;-87
2023/06/17 02:31:41;;;;;;;0.90;0.77;;;17.00;99.90;;;;;;5030321;28;20112;-88
2023/06/17 02:34:06;;;;;;;0.20;0.20;;;17.00;99.90;;;;;;5015717;28;20121;-87
2023/06/17 02:36:32;;;;;;;0.57;0.35;;;17.10;99.90;;;;;;5033488;28;20022;-87
2023/06/17 02:38:59;;;;;;;0.15;0.15;;;16.70;99.90;;;;;;5033358;28;20037;-87
2023/06/17 02:41:25;;;;;;;0.95;0.77;;;16.70;99.90;;;;;;5032986;28;20087;-87
2023/06/17 02:43:51;;;;;;;0.40;0.32;;;16.90;99.90;;;;;;5015007;28;20029;-87
2023/06/17 02:46:16;;;;;;;3.20;1.15;;;16.80;99.90;;;;;;5015975;28;20084;-88
2023/06/17 02:48:42;;;;;;;1.55;0.85;;;16.50;99.90;;;;;;5015522;28;20061;-88
2023/06/17 02:51:08;;;;;;;0.57;0.52;;;16.40;99.90;;;;;;5033294;28;20108;-87
2023/06/17 02:53:33;;;;;;;0.40;0.40;;;16.40;99.90;;;;;;5033007;28;20044;-87
2023/06/17 02:55:59;;;;;;;0.47;0.47;;;16.40;99.90;;;;;;5015186;28;20060;-88
2023/06/17 02:58:26;;;;;;;0.22;0.22;;;16.40;99.90;;;;;;5014854;28;20052;-87
2023/06/17 03:00:54;;;;;;;0.20;0.20;;;16.60;99.90;;;;;;5015274;28;20060;-88
2023/06/17 03:03:26;;;;;;;0.65;0.65;;;16.90;99.90;;;;;;5032915;28;20029;-88
2023/06/17 03:05:52;;;;;;;0.20;0.20;;;16.70;99.90;;;;;;5015294;28;20033;-87
2023/06/17 03:08:18;;;;;;;0.43;0.43;;;16.40;99.90;;;;;;5032888;28;20025;-87
2023/06/17 03:10:44;;;;;;;0.22;0.22;;;16.30;99.90;;;;;;5014945;28;20124;-87
2023/06/17 03:13:09;;;;;;;0.30;0.30;;;16.30;99.90;;;;;;5014809;28;20478;-87
2023/06/17 03:15:35;;;;;;;0.28;0.28;;;16.40;99.90;;;;;;5015216;28;20426;-87
2023/06/17 03:18:01;;;;;;;0.30;0.30;;;16.30;99.90;;;;;;5014954;28;20030;-87
2023/06/17 03:20:28;;;;;;;0.22;0.22;;;16.30;99.90;;;;;;5033187;28;20018;-87
2023/06/17 03:22:54;;;;;;;0.43;0.43;;;16.20;99.90;;;;;;5032747;28;20049;-87
2023/06/17 03:25:19;;;;;;;0.40;0.40;;;16.40;99.90;;;;;;5015196;28;20025;-87
2023/06/17 03:27:45;;;;;;;0.65;0.30;;;16.40;99.90;;;;;;5014573;28;20393;-87
2023/06/17 03:30:12;;;;;;;0.50;0.50;;;16.40;99.90;;;;;;5010307;28;20060;-87
2023/06/17 03:32:37;;;;;;;1.10;0.38;;;16.40;99.90;;;;;;5012566;28;20037;-88
2023/06/17 03:35:04;;;;;;;0.20;0.20;;;16.50;99.90;;;;;;5012774;28;20030;-87
2023/06/17 03:37:30;;;;;;;0.77;0.50;;;16.60;99.90;;;;;;5012519;28;20045;-87
2023/06/17 03:39:55;;;;;;;0.10;0.10;;;16.60;99.90;;;;;;4995470;28;20569;-88
2023/06/17 03:42:21;;;;;;;0.30;0.30;;;16.60;99.90;;;;;;5012605;28;20108;-87
2023/06/17 03:44:46;;;;;;;0.20;0.20;;;16.60;99.90;;;;;;5011390;28;20030;-87
2023/06/17 03:47:12;;;;;;;0.30;0.30;;;16.70;99.90;;;;;;5012863;28;20033;-87
2023/06/17 03:49:38;;;;;;;0.13;0.13;;;16.60;99.90;;;;;;5011710;28;20499;-87
2023/06/17 03:52:03;;;;;;;0.10;0.10;;;16.60;99.90;;;;;;5012824;28;20034;-87
2023/06/17 03:54:29;;;;;;;0.17;0.17;;;16.60;99.90;;;;;;5011516;28;20072;-87
2023/06/17 03:56:55;;;;;;;0.30;0.30;;;16.60;99.90;;;;;;5012391;28;20130;-87
2023/06/17 03:59:21;;;;;;;0.15;0.15;;;16.80;99.90;;;;;;5012977;28;20025;-87
2023/06/17 04:01:46;;;;;;;0.30;0.30;;;16.50;99.90;;;;;;5012590;28;20088;-87
2023/06/17 04:04:12;;;;;;;0.43;0.20;;;16.60;99.90;;;;;;5011408;28;20033;-87
2023/06/17 04:06:37;;;;;;;0.38;0.38;;;16.60;99.90;;;;;;5011305;28;20057;-88
2023/06/17 04:09:04;;;;;;;0.15;0.15;;;16.80;99.90;;;;;;5011404;28;20038;-87
2023/06/17 04:11:32;;;;;;;0.13;0.13;;;16.70;99.90;;;;;;5012449;28;20029;-88
2023/06/17 04:14:01;;;;;;;0.17;0.17;;;16.50;99.90;;;;;;5012574;28;20042;-88
2023/06/17 04:16:30;;;;;;;0.35;0.35;;;16.40;99.90;;;;;;5012420;28;20029;-87
2023/06/17 04:18:57;;;;;;;0.15;0.15;;;16.30;99.90;;;;;;5012510;28;20033;-88
2023/06/17 04:21:23;;;;;;;0.25;0.25;;;16.50;99.90;;;;;;5012375;28;20558;-88
2023/06/17 04:23:48;;;;;;;0.47;0.43;;;16.70;99.90;;;;;;5013522;28;20091;-87
2023/06/17 04:26:15;;;;;;;0.35;0.35;;;16.70;99.90;;;;;;5010796;28;20386;-87
2023/06/17 04:28:40;;;;;;;0.30;0.30;;;16.40;99.90;;;;;;5012012;28;20033;-88
2023/06/17 04:31:10;;;;;;;0.20;0.20;;;16.50;99.90;;;;;;5024264;28;20390;-87
2023/06/17 04:33:37;;;;;;;0.50;0.50;;;16.50;99.90;;;;;;5031814;28;20045;-87
2023/06/17 04:36:08;;;;;;;0.30;0.17;;;16.70;99.90;;;;;;5031880;28;20022;-87
2023/06/17 04:38:36;;;;;;;0.43;0.43;;;16.40;99.90;;;;;;5032246;28;20075;-87
2023/06/17 04:41:04;;;;;;;0.63;0.50;;;16.50;99.90;;;;;;5032615;28;20490;-87
2023/06/17 04:43:30;;;;;;;1.55;0.30;;;16.50;99.90;;;;;;5017931;28;20029;-87
2023/06/17 04:45:56;;;;;;;0.52;0.52;;;16.30;99.90;;;;;;5018125;28;20032;-87
2023/06/17 04:48:22;;;;;;;0.57;0.57;;;16.10;99.90;;;;;;5017820;28;20029;-88
2023/06/17 04:50:48;;;;;;;0.30;0.30;;;16.00;99.90;;;;;;5035411;28;20036;-88
2023/06/17 04:53:14;;;;;;;0.45;0.45;;;16.10;99.90;;;;;;5035781;28;20512;-87
2023/06/17 04:55:39;;;;;;;0.63;0.40;;;16.20;99.90;;;;;;5035300;28;20060;-87
2023/06/17 04:58:05;;;;;;;0.57;0.55;;;16.20;99.90;;;;;;5035439;28;20454;-88
2023/06/17 05:00:31;;;;;;;0.35;0.35;;;16.30;99.90;;;;;;5017849;28;20030;-87
2023/06/17 05:02:57;;;;;;;0.30;0.30;;;16.30;99.90;;;;;;5036203;28;20028;-87
2023/06/17 05:05:23;;;;;;;0.30;0.30;;;16.50;99.90;;;;;;5035301;28;20035;-87
2023/06/17 05:07:48;;;;;;;0.68;0.68;;;16.40;99.90;;;;;;5035123;28;20096;-87
2023/06/17 05:10:14;;;;;;;0.35;0.35;;;16.70;99.90;;;;;;5034836;28;20401;-87
2023/06/17 05:12:43;;;;;;;0.65;0.65;;;16.40;99.90;;;;;;5017023;28;20025;-87
2023/06/17 05:15:09;;;;;;;0.68;0.57;;;16.20;99.90;;;;;;5035593;28;20030;-87
2023/06/17 05:17:34;;;;;;;2.25;1.50;;;16.20;99.90;;;;;;5016743;28;20046;-87
2023/06/17 05:20:00;;;;;;;0.20;0.20;;;16.40;99.90;;;;;;5017271;28;20029;-87
2023/06/17 05:22:26;;;;;;;0.93;0.93;;;16.50;99.90;;;;;;5034871;28;20013;-87
2023/06/17 05:24:51;;;;;;;0.20;0.20;;;16.50;99.90;;;;;;5034578;28;20456;-87
2023/06/17 05:27:17;;;;;;;0.10;0.10;;;16.60;99.90;;;;;;5017045;28;20032;-88
2023/06/17 05:29:42;;;;;;;0.20;0.20;;;16.60;99.90;;;;;;5016726;28;20111;-87
2023/06/17 05:32:08;;;;;;;0.50;0.50;;;16.60;99.90;;;;;;5034588;28;20028;-87
2023/06/17 05:34:34;;;;;;;0.50;0.50;;;16.70;99.90;;;;;;5017233;28;20045;-87
2023/06/17 05:36:59;;;;;;;0.45;0.28;;;16.50;99.90;;;;;;5034450;28;20478;-87
2023/06/17 05:39:25;;;;;;;0.35;0.35;;;16.60;99.90;;;;;;5016252;28;20021;-88
2023/06/17 05:41:51;;;;;;;0.45;0.45;;;16.70;99.90;;;;;;5013539;28;20498;-87
2023/06/17 05:44:16;;;;;;;0.10;0.10;;;16.70;99.90;;;;;;5030106;28;20022;-87
2023/06/17 05:46:43;;;;;;;0.52;0.52;;;16.80;99.90;;;;;;4997294;28;20061;-87
2023/06/17 05:49:09;;;;;;;0.55;0.55;;;16.90;99.90;;;;;;5014441;28;20080;-87
2023/06/17 05:51:34;;;;;;;0.35;0.35;;;17.20;99.90;;;;;;5014718;28;20026;-87
2023/06/17 05:54:00;;;;;;;0.20;0.20;;;17.50;99.90;;;;;;5014103;28;20109;-88
2023/06/17 05:56:27;;;;;;;0.43;0.43;;;18.00;99.90;;;;;;4996976;28;20050;-86
2023/06/17 05:58:53;;;;;;;1.75;0.95;;;18.30;99.90;;;;;;5029862;28;20096;-86
2023/06/17 06:01:18;;;;;;;0.47;0.47;;;18.50;99.90;;;;;;5014528;28;20018;-86
2023/06/17 06:03:44;;;;;;;0.40;0.40;;;18.60;99.90;;;;;;5029844;28;20033;-86
2023/06/17 06:06:10;;;;;;;0.70;0.55;;;18.70;99.90;;;;;;4997023;28;20026;-87
2023/06/17 06:08:36;;;;;;;0.40;0.40;;;18.70;99.90;;;;;;5030588;28;20030;-89
2023/06/17 06:11:01;;;;;;;0.10;0.10;;;18.70;99.90;;;;;;5015448;28;20422;-84
2023/06/17 06:13:28;;;;;;;0.65;0.63;;;18.80;99.90;;;;;;5013940;28;20049;-84
2023/06/17 06:15:54;;;;;;;0.30;0.30;;;18.90;99.90;;;;;;5013883;28;20076;-84
2023/06/17 06:18:20;;;;;;;0.25;0.25;;;19.10;99.90;;;;;;5013596;28;20084;-84
2023/06/17 06:20:45;;;;;;;0.38;0.38;;;19.10;99.90;;;;;;5012947;28;20116;-84
2023/06/17 06:23:11;;;;;;;0.10;0.10;;;19.20;99.90;;;;;;5013323;28;20034;-84
2023/06/17 06:25:37;;;;;;;0.15;0.15;;;19.30;99.90;;;;;;5013534;28;20037;-84
2023/06/17 06:28:03;;;;;;;0.20;0.20;;;19.40;99.90;;;;;;5014034;28;20018;-84
2023/06/17 06:30:29;;;;;;;0.50;0.50;;;19.50;99.90;;;;;;5020107;28;20021;-84
2023/06/17 06:32:55;;;;;;;0.00;0.00;;;19.70;99.90;;;;;;5033529;28;20049;-83
2023/06/17 06:35:21;;;;;;;0.30;0.30;;;19.80;99.90;;;;;;5032674;28;20068;-84
2023/06/17 06:37:47;;;;;;;0.10;0.10;;;19.80;99.90;;;;;;5032670;28;20025;-84
2023/06/17 06:40:13;;;;;;;0.20;0.20;;;20.00;99.90;;;;;;5014858;28;20040;-84
2023/06/17 06:42:38;;;;;;;0.22;0.22;;;19.90;99.90;;;;;;5033490;28;20441;-84
2023/06/17 06:45:04;;;;;;;0.25;0.20;;;20.00;99.90;;;;;;5032867;28;20061;-84
2023/06/17 06:47:30;;;;;;;0.10;0.10;;;20.10;99.90;;;;;;5032702;28;20024;-84
2023/06/17 06:49:56;;;;;;;0.10;0.10;;;20.20;99.90;;;;;;5032675;28;20107;-85
2023/06/17 06:52:21;;;;;;;0.63;0.45;;;20.20;99.90;;;;;;5032706;28;20025;-83
2023/06/17 06:54:47;;;;;;;0.20;0.20;;;20.40;99.90;;;;;;5032701;28;20477;-85
2023/06/17 06:57:12;;;;;;;1.00;0.68;;;20.30;99.90;;;;;;5032378;28;20017;-84
2023/06/17 06:59:38;;;;;;;0.68;0.38;;;20.40;99.90;;;;;;5032960;28;20155;-84
2023/06/17 07:02:04;;;;;;;0.63;0.20;;;20.50;99.90;;;;;;5032380;28;20387;-84
2023/06/17 07:04:30;;;;;;;0.45;0.30;;;20.60;99.90;;;;;;5031543;28;20032;-84
2023/06/17 07:06:55;;;;;;;0.22;0.22;;;20.70;99.90;;;;;;5032487;28;20707;-83
2023/06/17 07:09:21;;;;;;;0.30;0.30;;;20.80;99.90;;;;;;5032937;28;20100;-84
2023/06/17 07:11:47;;;;;;;0.20;0.20;;;21.00;99.90;;;;;;5032523;28;20052;-84
2023/06/17 07:14:13;;;;;;;0.10;0.10;;;21.10;99.90;;;;;;5032717;28;20120;-84
2023/06/17 07:16:38;;;;;;;0.10;0.10;;;21.30;99.90;;;;;;5032632;28;20032;-85
2023/06/17 07:19:04;;;;;;;0.00;0.00;;;21.40;99.90;;;;;;5014593;28;20025;-84
2023/06/17 07:21:30;;;;;;;0.03;0.03;;;21.50;99.90;;;;;;5032183;28;20156;-85
2023/06/17 07:23:55;;;;;;;0.00;0.00;;;21.40;99.90;;;;;;5032568;28;20115;-82
2023/06/17 07:26:21;;;;;;;0.10;0.10;;;21.50;99.90;;;;;;5032454;28;20030;-83
2023/06/17 07:28:46;;;;;;;0.20;0.20;;;21.60;99.90;;;;;;5032150;28;20032;-83
2023/06/17 07:31:15;;;;;;;0.20;0.20;;;21.70;99.90;;;;;;5032262;28;20444;-83
2023/06/17 07:33:41;;;;;;;0.15;0.15;;;21.80;99.90;;;;;;5031650;28;20124;-83
2023/06/17 07:36:06;;;;;;;0.15;0.15;;;21.80;99.90;;;;;;5031930;28;20101;-83
2023/06/17 07:38:33;;;;;;;0.45;0.30;;;21.80;99.90;;;;;;5031822;28;20510;-83
2023/06/17 07:40:59;;;;;;;0.25;0.25;;;21.90;99.90;;;;;;5032295;28;20135;-82
2023/06/17 07:43:25;;;;;;;0.50;0.30;;;21.90;99.90;;;;;;5031631;28;20048;-83
2023/06/17 07:45:51;;;;;;;0.20;0.20;;;21.80;99.90;;;;;;5031945;28;20096;-82
2023/06/17 07:48:17;;;;;;;0.10;0.10;;;21.90;99.90;;;;;;5031874;28;20022;-83
2023/06/17 07:50:43;;;;;;;0.00;0.00;;;21.90;99.90;;;;;;5031572;28;20029;-83
2023/06/17 07:53:08;;;;;;;0.52;0.32;;;22.10;99.90;;;;;;5032419;28;20136;-83
2023/06/17 07:55:34;;;;;;;0.45;0.45;;;22.10;99.90;;;;;;5031824;28;20031;-83
2023/06/17 07:58:00;;;;;;;0.10;0.10;;;22.20;99.90;;;;;;5032211;28;20374;-83
2023/06/17 08:00:27;;;;;;;0.45;0.45;;;22.40;99.90;;;;;;5031795;28;20485;-83
2023/06/17 08:02:52;;;;;;;0.10;0.10;;;22.40;99.90;;;;;;5031967;28;20048;-83
2023/06/17 08:05:18;;;;;;;0.13;0.13;;;22.50;99.90;;;;;;5031682;28;20038;-83
2023/06/17 08:07:44;;;;;;;0.90;0.60;;;22.70;99.90;;;;;;5031760;28;20025;-83
2023/06/17 08:10:09;;;;;;;0.15;0.15;;;22.70;99.90;;;;;;5031535;28;20406;-83
2023/06/17 08:12:35;;;;;;;0.25;0.25;;;22.60;99.90;;;;;;5032371;28;20091;-83
2023/06/17 08:15:01;;;;;;;0.75;0.40;;;22.80;99.90;;;;;;5033053;28;20044;-83
2023/06/17 08:17:27;;;;;;;0.52;0.40;;;22.80;99.90;;;;;;5035246;28;20021;-83
2023/06/17 08:19:52;;;;;;;0.40;0.40;;;23.00;99.90;;;;;;5035974;28;20039;-83
2023/06/17 08:22:20;;;;;;;0.38;0.32;;;23.00;99.90;;;;;;5035462;28;20413;-83
2023/06/17 08:24:45;;;;;;;0.52;0.40;;;23.00;99.90;;;;;;5035448;28;20135;-83
2023/06/17 08:27:12;;;;;;;0.43;0.22;;;23.10;99.90;;;;;;5035620;28;20052;-82
2023/06/17 08:29:37;;;;;;;1.85;0.93;;;23.20;99.90;;;;;;5035536;28;20072;-83
2023/06/17 08:32:03;;;;;;;0.38;0.20;;;23.20;99.90;;;;;;5035032;28;20461;-83
2023/06/17 08:34:31;;;;;;;0.25;0.25;;;23.30;99.90;;;;;;5035215;28;20079;-83
2023/06/17 08:37:01;;;;;;;0.10;0.10;;;23.50;99.90;;;;;;5035276;28;20029;-83
2023/06/17 08:39:26;;;;;;;0.30;0.30;;;23.60;99.90;;;;;;5035281;28;20034;-83
2023/06/17 08:41:52;;;;;;;0.22;0.22;;;23.60;99.90;;;;;;5035272;28;20045;-83
2023/06/17 08:44:21;;;;;;;0.60;0.43;;;23.70;99.90;;;;;;5035190;28;20425;-83
2023/06/17 08:46:48;;;;;;;0.52;0.20;;;23.90;99.90;;;;;;5034613;28;20025;-83
2023/06/17 08:49:16;;;;;;;0.08;0.08;;;23.90;99.90;;;;;;5035154;28;20036;-83
2023/06/17 08:51:43;;;;;;;0.45;0.45;;;23.70;99.90;;;;;;5035191;28;20036;-83
2023/06/17 08:54:10;;;;;;;0.20;0.20;;;23.80;99.90;;;;;;5034999;28;20494;-83
2023/06/17 08:56:36;;;;;;;0.22;0.22;;;23.80;99.90;;;;;;5034897;28;20096;-83
2023/06/17 08:59:01;;;;;;;1.95;0.38;;;23.90;99.90;;;;;;5034722;28;20455;-83
2023/06/17 09:01:27;;;;;;;0.30;0.20;;;24.10;99.90;;;;;;5034706;28;20029;-83
2023/06/17 09:03:54;;;;;;;0.30;0.20;;;24.30;99.90;;;;;;5034925;28;20025;-83
2023/06/17 09:06:23;;;;;;;0.65;0.65;;;24.30;99.90;;;;;;5034687;28;20029;-83
2023/06/17 09:08:51;;;;;;;0.40;0.38;;;24.30;99.90;;;;;;5034806;28;20041;-83
2023/06/17 09:11:21;;;;;;;1.52;0.55;;;24.40;99.90;;;;;;5034605;28;20021;-83
2023/06/17 09:13:50;;;;;;;0.52;0.40;;;24.50;99.90;;;;;;5034695;28;20033;-83
2023/06/17 09:16:25;;;;;;;1.10;1.00;;;24.60;99.90;;;;;;5034827;28;20047;-83
2023/06/17 09:18:58;;;;;;;0.28;0.28;;;24.70;99.90;;;;;;5034533;28;20022;-83
2023/06/17 09:21:25;;;;;;;0.32;0.30;;;24.90;99.90;;;;;;5034437;28;20040;-83
2023/06/17 09:23:55;;;;;;;0.45;0.45;;;24.90;99.90;;;;;;5034960;28;20108;-83
2023/06/17 09:26:24;;;;;;;0.20;0.20;;;25.00;99.90;;;;;;5033770;28;20152;-83
2023/06/17 09:28:50;;;;;;;0.10;0.10;;;25.10;99.90;;;;;;5034355;28;20080;-83
2023/06/17 09:31:18;;;;;;;0.10;0.10;;;25.20;99.90;;;;;;5033664;28;20033;-83
2023/06/17 09:33:45;;;;;;;0.40;0.40;;;25.20;99.90;;;;;;5034777;28;20254;-83
2023/06/17 09:36:10;;;;;;;0.35;0.35;;;25.30;99.90;;;;;;5016544;28;20056;-83
2023/06/17 09:38:37;;;;;;;0.20;0.20;;;25.40;99.90;;;;;;5034396;28;20117;-83
2023/06/17 09:41:04;;;;;;;0.45;0.45;;;25.30;99.90;;;;;;5034198;28;20049;-83
2023/06/17 09:43:30;;;;;;;0.30;0.20;;;25.40;99.90;;;;;;5033915;28;20025;-83
2023/06/17 09:46:04;;;;;;;0.10;0.10;;;25.40;99.90;;;;;;5033698;28;20025;-83
2023/06/17 09:48:37;;;;;;;0.85;0.82;;;25.50;99.90;;;;;;5034043;28;20389;-83
2023/06/17 09:51:09;;;;;;;1.45;0.85;;;25.70;99.90;;;;;;5034079;28;20017;-83
2023/06/17 09:53:35;;;;;;;0.20;0.20;;;25.70;99.90;;;;;;5033828;28;20433;-83
2023/06/17 09:56:01;;;;;;;0.77;0.77;;;25.80;99.90;;;;;;5034157;28;20013;-83
2023/06/17 09:58:31;;;;;;;0.30;0.30;;;25.70;99.90;;;;;;5033269;28;20041;-83
2023/06/17 10:01:00;;;;;;;0.10;0.10;;;26.10;99.90;;;;;;5033620;28;20029;-83
2023/06/17 10:03:28;;;;;;;0.75;0.65;;;26.10;99.90;;;;;;5033933;28;20032;-83
2023/06/17 10:06:00;;;;;;;0.80;0.75;;;26.20;99.90;;;;;;5033398;28;20029;-83
2023/06/17 10:08:28;;;;;;;3.97;0.80;;;26.10;99.90;;;;;;5033987;28;20040;-83
2023/06/17 10:10:58;;;;;;;1.10;1.05;;;26.10;99.90;;;;;;5033557;28;20040;-83
2023/06/17 10:13:26;;;;;;;0.75;0.75;;;26.30;99.90;;;;;;5033108;28;20029;-83
2023/06/17 10:15:53;;;;;;;0.15;0.15;;;26.50;99.90;;;;;;5033614;28;20022;-82
2023/06/17 10:18:21;;;;;;;0.22;0.22;;;26.60;99.90;;;;;;5033875;28;20022;-83
2023/06/17 10:20:50;;;;;;;0.82;0.40;;;26.80;99.90;;;;;;5033137;28;20592;-83
2023/06/17 10:23:19;;;;;;;1.02;0.50;;;26.90;99.90;;;;;;5033199;28;20481;-83
2023/06/17 10:25:45;;;;;;;1.20;0.43;;;27.00;99.90;;;;;;5034108;28;20471;-83
2023/06/17 10:28:13;;;;;;;0.32;0.30;;;26.80;99.90;;;;;;5032786;28;20033;-83
2023/06/17 10:30:43;;;;;;;0.10;0.10;;;26.80;99.90;;;;;;5033158;28;20021;-83
2023/06/17 10:33:08;;;;;;;0.95;0.70;;;26.90;99.90;;;;;;5032928;28;20041;-83
2023/06/17 10:35:42;;;;;;;1.08;0.43;;;27.10;99.90;;;;;;5033132;28;20044;-83
2023/06/17 10:38:09;;;;;;;0.22;0.22;;;27.30;99.90;;;;;;5032044;28;20037;-83
2023/06/17 10:40:40;;;;;;;0.10;0.10;;;27.10;99.90;;;;;;5032575;28;20045;-83
2023/06/17 10:43:06;;;;;;;0.25;0.25;;;27.20;99.90;;;;;;5032698;28;20124;-83
2023/06/17 10:45:33;;;;;;;0.75;0.38;;;27.10;99.90;;;;;;5032846;28;20022;-83
2023/06/17 10:48:20;;;;;;;0.32;0.32;;;27.00;99.90;;;;;;5032783;28;20030;-84
2023/06/17 10:50:55;;;;;;;0.20;0.20;;;27.10;99.90;;;;;;5032744;28;20032;-83
2023/06/17 10:53:32;;;;;;;0.00;0.00;;;27.40;99.90;;;;;;5032484;28;20390;-83
2023/06/17 10:55:59;;;;;;;0.22;0.22;;;27.50;99.90;;;;;;5032811;28;20025;-83
2023/06/17 10:58:33;;;;;;;0.77;0.55;;;27.50;99.90;;;;;;5032028;28;20022;-83
2023/06/17 11:01:03;;;;;;;0.70;0.70;;;27.50;99.90;;;;;;5032569;28;20394;-83
2023/06/17 11:03:29;;;;;;;0.25;0.25;;;27.70;99.90;;;;;;5032457;28;20026;-83
2023/06/17 11:06:03;;;;;;;0.15;0.15;;;27.80;99.90;;;;;;5032569;28;20056;-83
2023/06/17 11:08:34;;;;;;;0.20;0.20;;;28.00;99.90;;;;;;5032765;28;20104;-83
2023/06/17 11:11:16;;;;;;;0.17;0.17;;;28.10;99.90;;;;;;5032142;28;20021;-83
2023/06/17 11:13:44;;;;;;;0.40;0.40;;;28.20;99.90;;;;;;5032306;28;20037;-83
2023/06/17 11:16:10;;;;;;;0.47;0.47;;;28.20;99.90;;;;;;5032349;28;20402;-83
2023/06/17 11:18:38;;;;;;;0.32;0.32;;;28.20;99.90;;;;;;5032258;28;20460;-83
2023/06/17 11:21:04;;;;;;;0.10;0.10;;;28.40;99.90;;;;;;5032190;28;20365;-83
2023/06/17 11:23:30;;;;;;;0.05;0.05;;;28.60;99.90;;;;;;5032269;28;20037;-83
2023/06/17 11:25:56;;;;;;;0.10;0.10;;;29.00;99.90;;;;;;5031728;28;20032;-83
2023/06/17 11:28:22;;;;;;;0.40;0.40;;;29.00;99.90;;;;;;5032326;28;20021;-83
2023/06/17 11:30:48;;;;;;;0.20;0.20;;;28.90;99.90;;;;;;5031920;28;20099;-83
2023/06/17 11:33:14;;;;;;;0.43;0.30;;;29.00;99.90;;;;;;5032390;28;20100;-83
2023/06/17 11:35:42;;;;;;;0.40;0.40;;;29.00;99.90;;;;;;5032366;28;20033;-83
2023/06/17 11:38:08;;;;;;;0.65;0.47;;;28.80;99.90;;;;;;5032038;28;20033;-83
2023/06/17 11:40:33;;;;;;;0.10;0.10;;;28.70;99.90;;;;;;5031432;28;20075;-83
2023/06/17 11:43:00;;;;;;;0.32;0.32;;;28.90;99.90;;;;;;5031811;28;20072;-83
2023/06/17 11:45:28;;;;;;;0.28;0.28;;;28.90;99.90;;;;;;5032398;28;20025;-83
2023/06/17 11:47:53;;;;;;;0.20;0.20;;;29.00;99.90;;;;;;5031869;28;20109;-83
2023/06/17 11:50:19;;;;;;;0.20;0.20;;;29.10;99.90;;;;;;5033629;28;20052;-83
2023/06/17 11:52:55;;;;;;;0.40;0.30;;;29.10;99.90;;;;;;5035866;28;20022;-83
2023/06/17 11:55:30;;;;;;;0.85;0.50;;;29.10;99.90;;;;;;5036258;28;20063;-83
2023/06/17 11:57:56;;;;;;;0.43;0.43;;;29.30;99.90;;;;;;5035897;28;20021;-83
2023/06/17 12:00:22;;;;;;;0.43;0.32;;;29.40;99.90;;;;;;5035860;28;20045;-82
2023/06/17 12:02:48;;;;;;;0.40;0.40;;;29.30;99.90;;;;;;5035803;28;20026;-83
2023/06/17 12:05:13;;;;;;;0.32;0.30;;;29.50;99.90;;;;;;5035922;28;20091;-83
2023/06/17 12:07:39;;;;;;;0.98;0.75;;;29.60;99.90;;;;;;5035744;28;20034;-83
2023/06/17 12:10:06;;;;;;;0.40;0.40;;;29.80;99.90;;;;;;5035203;28;20045;-83
2023/06/17 12:12:34;;;;;;;0.90;0.32;;;29.70;99.90;;;;;;5035835;28;20442;-83
2023/06/17 12:15:09;;;;;;;0.20;0.20;;;29.80;99.90;;;;;;5035717;28;20485;-83
2023/06/17 12:17:38;;;;;;;0.22;0.20;;;29.80;99.90;;;;;;5036207;28;20068;-83
2023/06/17 12:20:05;;;;;;;0.10;0.10;;;29.80;99.90;;;;;;5035827;28;20068;-83
2023/06/17 12:22:31;;;;;;;0.20;0.20;;;29.90;99.90;;;;;;5035591;28;20029;-83
2023/06/17 12:24:57;;;;;;;0.10;0.10;;;29.90;99.90;;;;;;5035349;28;20047;-84
2023/06/17 12:27:30;;;;;;;0.75;0.22;;;29.90;99.90;;;;;;5035288;28;20026;-83
2023/06/17 12:29:59;;;;;;;0.03;0.03;;;29.80;99.90;;;;;;5035562;28;20497;-83
2023/06/17 12:32:24;;;;;;;0.13;0.13;;;29.80;99.90;;;;;;5035635;28;20184;-83
2023/06/17 12:34:51;;;;;;;0.40;0.40;;;29.90;99.90;;;;;;5035129;28;20481;-83
2023/06/17 12:37:21;;;;;;;0.20;0.20;;;30.00;99.90;;;;;;5035328;28;20053;-83
2023/06/17 12:39:47;;;;;;;0.43;0.28;;;29.90;99.90;;;;;;5035304;28;20022;-83
2023/06/17 12:42:12;;;;;;;0.10;0.10;;;29.70;99.90;;;;;;5034972;28;20041;-83
2023/06/17 12:44:38;;;;;;;0.10;0.10;;;30.20;99.90;;;;;;5035217;28;20030;-83
2023/06/17 12:47:04;;;;;;;0.35;0.30;;;30.40;99.90;;;;;;5035234;28;20378;-83